sensor_id;sensor_type;location;lat;lon;timestamp;P1;durP1;ratioP1;P2;durP2;ratioP2
36131;SDS011;22185;48.738;9.324;2022-08-19T00:00:57;11.27;;;10.18;;
36131;SDS011;22185;48.738;9.324;2022-08-19T00:05:00;13.35;;;12.15;;
36131;SDS011;22185;48.738;9.324;2022-08-19T00:07:04;13.43;;;12.30;;
36131;SDS011;22185;48.738;9.324;2022-08-19T00:09:08;13.38;;;11.85;;
36131;SDS011;22185;48.738;9.324;2022-08-19T00:11:13;13.05;;;11.85;;
36131;SDS011;22185;48.738;9.324;2022-08-19T00:13:26;12.25;;;10.98;;
36131;SDS011;22185;48.738;9.324;2022-08-19T00:15:29;13.10;;;12.00;;
36131;SDS011;22185;48.738;9.324;2022-08-19T00:19:33;13.88;;;12.57;;
36131;SDS011;22185;48.738;9.324;2022-08-19T00:21:37;13.45;;;12.27;;
36131;SDS011;22185;48.738;9.324;2022-08-19T00:23:40;14.27;;;13.02;;
36131;SDS011;22185;48.738;9.324;2022-08-19T00:25:44;13.52;;;12.30;;
36131;SDS011;22185;48.738;9.324;2022-08-19T00:27:49;12.88;;;10.98;;
36131;SDS011;22185;48.738;9.324;2022-08-19T00:31:53;13.48;;;12.18;;
36131;SDS011;22185;48.738;9.324;2022-08-19T00:33:59;14.38;;;12.73;;
36131;SDS011;22185;48.738;9.324;2022-08-19T00:38:05;13.13;;;11.90;;
36131;SDS011;22185;48.738;9.324;2022-08-19T00:40:07;14.07;;;12.90;;
36131;SDS011;22185;48.738;9.324;2022-08-19T00:42:10;13.95;;;12.65;;
36131;SDS011;22185;48.738;9.324;2022-08-19T00:44:17;15.32;;;14.05;;
36131;SDS011;22185;48.738;9.324;2022-08-19T00:46:27;15.13;;;13.83;;
36131;SDS011;22185;48.738;9.324;2022-08-19T00:48:30;15.18;;;13.77;;
36131;SDS011;22185;48.738;9.324;2022-08-19T00:50:34;14.50;;;12.98;;
36131;SDS011;22185;48.738;9.324;2022-08-19T00:52:51;15.20;;;13.60;;
36131;SDS011;22185;48.738;9.324;2022-08-19T00:54:55;15.63;;;13.98;;
36131;SDS011;22185;48.738;9.324;2022-08-19T00:56:58;14.57;;;13.27;;
36131;SDS011;22185;48.738;9.324;2022-08-19T00:59:02;14.95;;;13.48;;
36131;SDS011;22185;48.738;9.324;2022-08-19T01:01:10;14.35;;;12.93;;
36131;SDS011;22185;48.738;9.324;2022-08-19T01:05:20;15.07;;;13.52;;
36131;SDS011;22185;48.738;9.324;2022-08-19T01:07:25;15.30;;;14.00;;
36131;SDS011;22185;48.738;9.324;2022-08-19T01:09:26;14.90;;;13.40;;
36131;SDS011;22185;48.738;9.324;2022-08-19T01:11:30;14.43;;;13.13;;
36131;SDS011;22185;48.738;9.324;2022-08-19T01:13:34;15.77;;;14.27;;
36131;SDS011;22185;48.738;9.324;2022-08-19T01:15:52;14.00;;;12.70;;
36131;SDS011;22185;48.738;9.324;2022-08-19T01:18:07;13.75;;;12.52;;
36131;SDS011;22185;48.738;9.324;2022-08-19T01:20:16;16.60;;;14.98;;
36131;SDS011;22185;48.738;9.324;2022-08-19T01:24:33;14.27;;;12.98;;
36131;SDS011;22185;48.738;9.324;2022-08-19T01:26:45;14.25;;;12.95;;
36131;SDS011;22185;48.738;9.324;2022-08-19T01:28:50;15.27;;;13.98;;
36131;SDS011;22185;48.738;9.324;2022-08-19T01:30:59;15.20;;;13.70;;
36131;SDS011;22185;48.738;9.324;2022-08-19T01:33:08;14.55;;;13.15;;
36131;SDS011;22185;48.738;9.324;2022-08-19T01:35:10;13.05;;;11.93;;
36131;SDS011;22185;48.738;9.324;2022-08-19T01:37:14;15.30;;;14.00;;
36131;SDS011;22185;48.738;9.324;2022-08-19T01:39:27;13.80;;;12.55;;
36131;SDS011;22185;48.738;9.324;2022-08-19T01:41:29;14.00;;;12.77;;
36131;SDS011;22185;48.738;9.324;2022-08-19T01:43:31;13.68;;;12.43;;
36131;SDS011;22185;48.738;9.324;2022-08-19T01:45:34;15.02;;;13.63;;
36131;SDS011;22185;48.738;9.324;2022-08-19T01:47:37;14.88;;;13.38;;
36131;SDS011;22185;48.738;9.324;2022-08-19T01:49:39;15.00;;;13.63;;
36131;SDS011;22185;48.738;9.324;2022-08-19T01:53:45;14.25;;;12.50;;
36131;SDS011;22185;48.738;9.324;2022-08-19T01:55:49;14.18;;;12.88;;
36131;SDS011;22185;48.738;9.324;2022-08-19T01:57:52;13.93;;;12.60;;
36131;SDS011;22185;48.738;9.324;2022-08-19T01:59:58;13.68;;;12.32;;
36131;SDS011;22185;48.738;9.324;2022-08-19T02:02:01;14.70;;;13.38;;
36131;SDS011;22185;48.738;9.324;2022-08-19T02:04:04;15.30;;;13.90;;
36131;SDS011;22185;48.738;9.324;2022-08-19T02:06:06;14.32;;;13.05;;
36131;SDS011;22185;48.738;9.324;2022-08-19T02:10:12;14.50;;;13.05;;
36131;SDS011;22185;48.738;9.324;2022-08-19T02:12:17;11.50;;;10.30;;
36131;SDS011;22185;48.738;9.324;2022-08-19T02:14:19;13.55;;;11.85;;
36131;SDS011;22185;48.738;9.324;2022-08-19T02:16:21;15.13;;;13.73;;
36131;SDS011;22185;48.738;9.324;2022-08-19T02:20:28;14.57;;;13.27;;
36131;SDS011;22185;48.738;9.324;2022-08-19T02:22:30;12.52;;;11.15;;
36131;SDS011;22185;48.738;9.324;2022-08-19T02:24:32;13.82;;;12.52;;
36131;SDS011;22185;48.738;9.324;2022-08-19T02:26:33;11.82;;;10.73;;
36131;SDS011;22185;48.738;9.324;2022-08-19T02:30:38;12.55;;;11.38;;
36131;SDS011;22185;48.738;9.324;2022-08-19T02:32:41;9.27;;;8.38;;
36131;SDS011;22185;48.738;9.324;2022-08-19T02:34:45;9.73;;;8.35;;
36131;SDS011;22185;48.738;9.324;2022-08-19T02:36:47;11.30;;;8.27;;
36131;SDS011;22185;48.738;9.324;2022-08-19T02:38:52;8.20;;;7.40;;
36131;SDS011;22185;48.738;9.324;2022-08-19T02:43:05;12.60;;;10.20;;
36131;SDS011;22185;48.738;9.324;2022-08-19T02:45:09;9.45;;;7.88;;
36131;SDS011;22185;48.738;9.324;2022-08-19T02:47:11;12.20;;;9.32;;
36131;SDS011;22185;48.738;9.324;2022-08-19T02:49:15;12.25;;;7.78;;
36131;SDS011;22185;48.738;9.324;2022-08-19T02:51:20;9.75;;;7.30;;
36131;SDS011;22185;48.738;9.324;2022-08-19T02:53:26;10.57;;;7.65;;
36131;SDS011;22185;48.738;9.324;2022-08-19T02:55:28;11.38;;;7.88;;
36131;SDS011;22185;48.738;9.324;2022-08-19T02:57:45;10.95;;;7.55;;
36131;SDS011;22185;48.738;9.324;2022-08-19T02:59:48;10.65;;;6.78;;
36131;SDS011;22185;48.738;9.324;2022-08-19T03:01:50;11.05;;;8.27;;
36131;SDS011;22185;48.738;9.324;2022-08-19T03:03:53;12.57;;;9.02;;
36131;SDS011;22185;48.738;9.324;2022-08-19T03:06:03;11.15;;;7.20;;
36131;SDS011;22185;48.738;9.324;2022-08-19T03:08:13;8.48;;;6.85;;
36131;SDS011;22185;48.738;9.324;2022-08-19T03:10:15;8.75;;;6.95;;
36131;SDS011;22185;48.738;9.324;2022-08-19T03:12:17;11.43;;;7.38;;
36131;SDS011;22185;48.738;9.324;2022-08-19T03:14:19;8.23;;;6.63;;
36131;SDS011;22185;48.738;9.324;2022-08-19T03:16:22;11.10;;;8.40;;
36131;SDS011;22185;48.738;9.324;2022-08-19T03:18:25;9.57;;;7.28;;
36131;SDS011;22185;48.738;9.324;2022-08-19T03:20:28;10.15;;;7.30;;
36131;SDS011;22185;48.738;9.324;2022-08-19T03:24:31;8.10;;;6.38;;
36131;SDS011;22185;48.738;9.324;2022-08-19T03:26:33;9.55;;;8.25;;
36131;SDS011;22185;48.738;9.324;2022-08-19T03:28:39;7.95;;;6.82;;
36131;SDS011;22185;48.738;9.324;2022-08-19T03:30:55;7.32;;;6.43;;
36131;SDS011;22185;48.738;9.324;2022-08-19T03:33:01;7.72;;;6.05;;
36131;SDS011;22185;48.738;9.324;2022-08-19T03:35:05;7.78;;;6.97;;
36131;SDS011;22185;48.738;9.324;2022-08-19T03:39:13;9.70;;;7.18;;
36131;SDS011;22185;48.738;9.324;2022-08-19T03:41:19;11.18;;;7.95;;
36131;SDS011;22185;48.738;9.324;2022-08-19T03:43:23;9.20;;;7.95;;
36131;SDS011;22185;48.738;9.324;2022-08-19T03:45:25;9.82;;;6.30;;
36131;SDS011;22185;48.738;9.324;2022-08-19T03:47:29;11.18;;;8.40;;
36131;SDS011;22185;48.738;9.324;2022-08-19T03:49:31;8.15;;;6.65;;
36131;SDS011;22185;48.738;9.324;2022-08-19T03:51:38;7.75;;;6.68;;
36131;SDS011;22185;48.738;9.324;2022-08-19T03:53:40;8.55;;;6.47;;
36131;SDS011;22185;48.738;9.324;2022-08-19T03:55:41;9.95;;;8.13;;
36131;SDS011;22185;48.738;9.324;2022-08-19T03:57:43;8.63;;;6.72;;
36131;SDS011;22185;48.738;9.324;2022-08-19T03:59:46;8.15;;;7.05;;
36131;SDS011;22185;48.738;9.324;2022-08-19T04:01:48;8.88;;;6.35;;
36131;SDS011;22185;48.738;9.324;2022-08-19T04:05:54;12.93;;;7.88;;
36131;SDS011;22185;48.738;9.324;2022-08-19T04:07:56;8.95;;;6.80;;
36131;SDS011;22185;48.738;9.324;2022-08-19T04:10:00;7.30;;;6.40;;
36131;SDS011;22185;48.738;9.324;2022-08-19T04:12:01;7.78;;;6.32;;
36131;SDS011;22185;48.738;9.324;2022-08-19T04:14:06;9.70;;;7.57;;
36131;SDS011;22185;48.738;9.324;2022-08-19T04:16:08;9.88;;;6.47;;
36131;SDS011;22185;48.738;9.324;2022-08-19T04:18:11;9.52;;;7.15;;
36131;SDS011;22185;48.738;9.324;2022-08-19T04:20:13;7.97;;;6.68;;
36131;SDS011;22185;48.738;9.324;2022-08-19T04:22:15;7.40;;;6.40;;
36131;SDS011;22185;48.738;9.324;2022-08-19T04:26:20;8.80;;;6.70;;
36131;SDS011;22185;48.738;9.324;2022-08-19T04:28:27;9.05;;;7.82;;
36131;SDS011;22185;48.738;9.324;2022-08-19T04:30:36;8.48;;;7.28;;
36131;SDS011;22185;48.738;9.324;2022-08-19T04:32:42;12.88;;;9.50;;
36131;SDS011;22185;48.738;9.324;2022-08-19T04:37:06;8.90;;;7.40;;
36131;SDS011;22185;48.738;9.324;2022-08-19T04:39:16;7.53;;;6.78;;
36131;SDS011;22185;48.738;9.324;2022-08-19T04:41:20;10.15;;;8.50;;
36131;SDS011;22185;48.738;9.324;2022-08-19T04:43:41;11.00;;;7.82;;
36131;SDS011;22185;48.738;9.324;2022-08-19T04:45:43;9.75;;;6.90;;
36131;SDS011;22185;48.738;9.324;2022-08-19T04:47:46;10.25;;;8.35;;
36131;SDS011;22185;48.738;9.324;2022-08-19T04:49:59;6.05;;;5.47;;
36131;SDS011;22185;48.738;9.324;2022-08-19T04:52:01;7.80;;;5.80;;
36131;SDS011;22185;48.738;9.324;2022-08-19T04:56:14;7.30;;;5.80;;
36131;SDS011;22185;48.738;9.324;2022-08-19T04:58:18;7.30;;;6.07;;
36131;SDS011;22185;48.738;9.324;2022-08-19T05:00:20;7.65;;;5.75;;
36131;SDS011;22185;48.738;9.324;2022-08-19T05:02:22;8.13;;;5.80;;
36131;SDS011;22185;48.738;9.324;2022-08-19T05:04:25;6.82;;;5.68;;
36131;SDS011;22185;48.738;9.324;2022-08-19T05:06:27;7.55;;;6.35;;
36131;SDS011;22185;48.738;9.324;2022-08-19T05:08:29;6.60;;;5.22;;
36131;SDS011;22185;48.738;9.324;2022-08-19T05:10:32;8.98;;;6.50;;
36131;SDS011;22185;48.738;9.324;2022-08-19T05:12:37;6.85;;;4.82;;
36131;SDS011;22185;48.738;9.324;2022-08-19T05:14:39;7.47;;;5.15;;
36131;SDS011;22185;48.738;9.324;2022-08-19T05:16:40;7.50;;;4.47;;
36131;SDS011;22185;48.738;9.324;2022-08-19T05:18:42;5.80;;;4.55;;
36131;SDS011;22185;48.738;9.324;2022-08-19T05:21:11;5.18;;;3.72;;
36131;SDS011;22185;48.738;9.324;2022-08-19T05:23:33;6.82;;;3.83;;
36131;SDS011;22185;48.738;9.324;2022-08-19T05:25:35;6.55;;;4.72;;
36131;SDS011;22185;48.738;9.324;2022-08-19T05:27:41;5.28;;;4.20;;
36131;SDS011;22185;48.738;9.324;2022-08-19T05:31:45;6.47;;;4.00;;
36131;SDS011;22185;48.738;9.324;2022-08-19T05:33:50;6.63;;;4.70;;
36131;SDS011;22185;48.738;9.324;2022-08-19T05:35:51;5.68;;;4.40;;
36131;SDS011;22185;48.738;9.324;2022-08-19T05:37:53;6.78;;;4.68;;
36131;SDS011;22185;48.738;9.324;2022-08-19T05:39:59;8.90;;;6.07;;
36131;SDS011;22185;48.738;9.324;2022-08-19T05:44:10;8.85;;;4.55;;
36131;SDS011;22185;48.738;9.324;2022-08-19T05:48:28;6.43;;;4.20;;
36131;SDS011;22185;48.738;9.324;2022-08-19T05:50:31;6.90;;;5.15;;
36131;SDS011;22185;48.738;9.324;2022-08-19T05:52:32;7.45;;;5.07;;
36131;SDS011;22185;48.738;9.324;2022-08-19T05:54:38;6.60;;;4.50;;
36131;SDS011;22185;48.738;9.324;2022-08-19T05:56:42;5.65;;;3.88;;
36131;SDS011;22185;48.738;9.324;2022-08-19T05:58:45;6.57;;;3.72;;
36131;SDS011;22185;48.738;9.324;2022-08-19T06:00:47;7.53;;;4.82;;
36131;SDS011;22185;48.738;9.324;2022-08-19T06:04:52;5.82;;;4.85;;
36131;SDS011;22185;48.738;9.324;2022-08-19T06:08:57;8.32;;;4.55;;
36131;SDS011;22185;48.738;9.324;2022-08-19T06:11:11;4.75;;;3.63;;
36131;SDS011;22185;48.738;9.324;2022-08-19T06:13:17;7.55;;;5.47;;
36131;SDS011;22185;48.738;9.324;2022-08-19T06:15:20;7.03;;;4.45;;
36131;SDS011;22185;48.738;9.324;2022-08-19T06:17:26;7.35;;;5.43;;
36131;SDS011;22185;48.738;9.324;2022-08-19T06:21:31;8.68;;;6.18;;
36131;SDS011;22185;48.738;9.324;2022-08-19T06:23:34;8.82;;;5.00;;
36131;SDS011;22185;48.738;9.324;2022-08-19T06:25:35;8.00;;;5.88;;
36131;SDS011;22185;48.738;9.324;2022-08-19T06:27:42;5.32;;;3.47;;
36131;SDS011;22185;48.738;9.324;2022-08-19T06:32:06;7.80;;;4.82;;
36131;SDS011;22185;48.738;9.324;2022-08-19T06:34:08;8.90;;;5.63;;
36131;SDS011;22185;48.738;9.324;2022-08-19T06:36:24;8.95;;;6.45;;
36131;SDS011;22185;48.738;9.324;2022-08-19T06:38:28;8.20;;;4.50;;
36131;SDS011;22185;48.738;9.324;2022-08-19T06:40:30;7.25;;;4.93;;
36131;SDS011;22185;48.738;9.324;2022-08-19T06:46:43;6.10;;;4.32;;
36131;SDS011;22185;48.738;9.324;2022-08-19T06:48:53;6.80;;;4.13;;
36131;SDS011;22185;48.738;9.324;2022-08-19T06:50:55;6.45;;;3.83;;
36131;SDS011;22185;48.738;9.324;2022-08-19T06:52:57;7.07;;;4.38;;
36131;SDS011;22185;48.738;9.324;2022-08-19T06:55:04;6.60;;;4.72;;
36131;SDS011;22185;48.738;9.324;2022-08-19T06:57:07;6.55;;;3.92;;
36131;SDS011;22185;48.738;9.324;2022-08-19T06:59:16;6.95;;;3.78;;
36131;SDS011;22185;48.738;9.324;2022-08-19T07:01:20;7.70;;;4.47;;
36131;SDS011;22185;48.738;9.324;2022-08-19T07:03:22;5.60;;;4.03;;
36131;SDS011;22185;48.738;9.324;2022-08-19T07:05:24;7.05;;;4.07;;
36131;SDS011;22185;48.738;9.324;2022-08-19T07:07:26;6.90;;;4.03;;
36131;SDS011;22185;48.738;9.324;2022-08-19T07:11:30;4.90;;;3.15;;
36131;SDS011;22185;48.738;9.324;2022-08-19T07:13:34;7.30;;;4.85;;
36131;SDS011;22185;48.738;9.324;2022-08-19T07:15:38;7.80;;;4.68;;
36131;SDS011;22185;48.738;9.324;2022-08-19T07:17:40;7.97;;;4.60;;
36131;SDS011;22185;48.738;9.324;2022-08-19T07:19:44;8.20;;;4.88;;
36131;SDS011;22185;48.738;9.324;2022-08-19T07:21:48;6.13;;;4.03;;
36131;SDS011;22185;48.738;9.324;2022-08-19T07:23:54;6.32;;;3.92;;
36131;SDS011;22185;48.738;9.324;2022-08-19T07:25:56;7.93;;;4.50;;
36131;SDS011;22185;48.738;9.324;2022-08-19T07:27:58;5.57;;;4.05;;
36131;SDS011;22185;48.738;9.324;2022-08-19T07:30:02;7.93;;;4.95;;
36131;SDS011;22185;48.738;9.324;2022-08-19T07:32:06;7.10;;;4.60;;
36131;SDS011;22185;48.738;9.324;2022-08-19T07:34:13;8.18;;;4.82;;
36131;SDS011;22185;48.738;9.324;2022-08-19T07:36:18;8.77;;;4.82;;
36131;SDS011;22185;48.738;9.324;2022-08-19T07:38:22;7.47;;;4.05;;
36131;SDS011;22185;48.738;9.324;2022-08-19T07:42:26;6.78;;;4.60;;
36131;SDS011;22185;48.738;9.324;2022-08-19T07:44:30;6.93;;;4.07;;
36131;SDS011;22185;48.738;9.324;2022-08-19T07:48:35;7.57;;;4.63;;
36131;SDS011;22185;48.738;9.324;2022-08-19T07:50:37;6.80;;;4.32;;
36131;SDS011;22185;48.738;9.324;2022-08-19T07:52:40;7.00;;;4.53;;
36131;SDS011;22185;48.738;9.324;2022-08-19T07:54:43;7.78;;;5.20;;
36131;SDS011;22185;48.738;9.324;2022-08-19T07:56:45;8.32;;;5.95;;
36131;SDS011;22185;48.738;9.324;2022-08-19T08:00:50;5.93;;;3.85;;
36131;SDS011;22185;48.738;9.324;2022-08-19T08:02:52;7.85;;;4.50;;
36131;SDS011;22185;48.738;9.324;2022-08-19T08:04:56;7.65;;;5.60;;
36131;SDS011;22185;48.738;9.324;2022-08-19T08:07:16;5.18;;;4.50;;
36131;SDS011;22185;48.738;9.324;2022-08-19T08:09:51;7.15;;;4.25;;
36131;SDS011;22185;48.738;9.324;2022-08-19T08:12:00;8.20;;;5.20;;
36131;SDS011;22185;48.738;9.324;2022-08-19T08:14:28;7.13;;;5.05;;
36131;SDS011;22185;48.738;9.324;2022-08-19T08:16:36;7.50;;;4.65;;
36131;SDS011;22185;48.738;9.324;2022-08-19T08:18:47;6.38;;;4.07;;
36131;SDS011;22185;48.738;9.324;2022-08-19T08:20:51;6.65;;;4.65;;
36131;SDS011;22185;48.738;9.324;2022-08-19T08:22:52;6.45;;;4.20;;
36131;SDS011;22185;48.738;9.324;2022-08-19T08:25:14;5.72;;;4.10;;
36131;SDS011;22185;48.738;9.324;2022-08-19T08:27:21;7.10;;;4.72;;
36131;SDS011;22185;48.738;9.324;2022-08-19T08:29:27;6.93;;;4.30;;
36131;SDS011;22185;48.738;9.324;2022-08-19T08:31:35;8.98;;;5.13;;
36131;SDS011;22185;48.738;9.324;2022-08-19T08:33:37;6.35;;;4.22;;
36131;SDS011;22185;48.738;9.324;2022-08-19T08:35:42;7.22;;;5.05;;
36131;SDS011;22185;48.738;9.324;2022-08-19T08:37:47;8.70;;;4.97;;
36131;SDS011;22185;48.738;9.324;2022-08-19T08:39:51;7.63;;;5.00;;
36131;SDS011;22185;48.738;9.324;2022-08-19T08:41:56;7.45;;;4.78;;
36131;SDS011;22185;48.738;9.324;2022-08-19T08:44:23;7.55;;;4.40;;
36131;SDS011;22185;48.738;9.324;2022-08-19T08:46:48;6.43;;;4.03;;
36131;SDS011;22185;48.738;9.324;2022-08-19T08:49:10;6.63;;;4.22;;
36131;SDS011;22185;48.738;9.324;2022-08-19T08:51:35;5.88;;;3.60;;
36131;SDS011;22185;48.738;9.324;2022-08-19T08:54:00;6.65;;;3.88;;
36131;SDS011;22185;48.738;9.324;2022-08-19T08:56:06;5.90;;;4.35;;
36131;SDS011;22185;48.738;9.324;2022-08-19T08:58:16;8.18;;;5.07;;
36131;SDS011;22185;48.738;9.324;2022-08-19T09:00:32;7.25;;;4.78;;
36131;SDS011;22185;48.738;9.324;2022-08-19T09:02:36;7.03;;;4.18;;
36131;SDS011;22185;48.738;9.324;2022-08-19T09:04:37;5.40;;;3.53;;
36131;SDS011;22185;48.738;9.324;2022-08-19T09:09:35;6.47;;;3.95;;
36131;SDS011;22185;48.738;9.324;2022-08-19T09:16:52;5.13;;;3.25;;
36131;SDS011;22185;48.738;9.324;2022-08-19T09:18:55;6.00;;;4.38;;
36131;SDS011;22185;48.738;9.324;2022-08-19T09:21:00;6.10;;;3.83;;
36131;SDS011;22185;48.738;9.324;2022-08-19T09:23:01;5.63;;;3.83;;
36131;SDS011;22185;48.738;9.324;2022-08-19T09:25:05;6.10;;;2.97;;
36131;SDS011;22185;48.738;9.324;2022-08-19T09:27:09;5.50;;;3.63;;
36131;SDS011;22185;48.738;9.324;2022-08-19T09:29:19;5.20;;;3.22;;
36131;SDS011;22185;48.738;9.324;2022-08-19T09:31:24;6.28;;;4.43;;
36131;SDS011;22185;48.738;9.324;2022-08-19T09:33:27;4.93;;;3.30;;
36131;SDS011;22185;48.738;9.324;2022-08-19T09:35:30;6.68;;;3.80;;
36131;SDS011;22185;48.738;9.324;2022-08-19T09:37:50;6.82;;;3.95;;
36131;SDS011;22185;48.738;9.324;2022-08-19T09:39:59;5.85;;;3.95;;
36131;SDS011;22185;48.738;9.324;2022-08-19T09:42:02;5.80;;;4.35;;
36131;SDS011;22185;48.738;9.324;2022-08-19T09:44:16;7.03;;;4.32;;
36131;SDS011;22185;48.738;9.324;2022-08-19T09:46:19;11.75;;;3.55;;
36131;SDS011;22185;48.738;9.324;2022-08-19T09:48:24;5.93;;;4.40;;
36131;SDS011;22185;48.738;9.324;2022-08-19T09:50:25;5.28;;;3.85;;
36131;SDS011;22185;48.738;9.324;2022-08-19T09:52:27;7.47;;;4.38;;
36131;SDS011;22185;48.738;9.324;2022-08-19T09:54:33;5.18;;;3.25;;
36131;SDS011;22185;48.738;9.324;2022-08-19T09:56:37;6.07;;;3.20;;
36131;SDS011;22185;48.738;9.324;2022-08-19T09:58:42;4.72;;;3.92;;
36131;SDS011;22185;48.738;9.324;2022-08-19T10:00:44;3.92;;;3.53;;
36131;SDS011;22185;48.738;9.324;2022-08-19T10:02:51;5.72;;;4.25;;
36131;SDS011;22185;48.738;9.324;2022-08-19T10:04:53;5.20;;;3.35;;
36131;SDS011;22185;48.738;9.324;2022-08-19T10:07:23;6.18;;;3.75;;
36131;SDS011;22185;48.738;9.324;2022-08-19T10:09:36;4.88;;;2.92;;
36131;SDS011;22185;48.738;9.324;2022-08-19T10:11:40;5.68;;;3.58;;
36131;SDS011;22185;48.738;9.324;2022-08-19T10:13:54;4.97;;;3.22;;
36131;SDS011;22185;48.738;9.324;2022-08-19T10:15:57;4.85;;;3.13;;
36131;SDS011;22185;48.738;9.324;2022-08-19T10:18:06;7.65;;;4.82;;
36131;SDS011;22185;48.738;9.324;2022-08-19T10:20:09;6.18;;;4.22;;
36131;SDS011;22185;48.738;9.324;2022-08-19T10:22:11;5.70;;;4.07;;
36131;SDS011;22185;48.738;9.324;2022-08-19T10:24:15;5.82;;;3.83;;
36131;SDS011;22185;48.738;9.324;2022-08-19T10:26:19;5.35;;;3.35;;
36131;SDS011;22185;48.738;9.324;2022-08-19T10:28:26;4.55;;;3.70;;
36131;SDS011;22185;48.738;9.324;2022-08-19T10:30:30;6.30;;;4.22;;
36131;SDS011;22185;48.738;9.324;2022-08-19T10:32:32;6.10;;;4.05;;
36131;SDS011;22185;48.738;9.324;2022-08-19T10:34:37;5.63;;;3.45;;
36131;SDS011;22185;48.738;9.324;2022-08-19T10:36:48;5.20;;;3.55;;
36131;SDS011;22185;48.738;9.324;2022-08-19T10:39:01;7.90;;;4.47;;
36131;SDS011;22185;48.738;9.324;2022-08-19T10:41:07;7.13;;;4.72;;
36131;SDS011;22185;48.738;9.324;2022-08-19T10:43:10;6.15;;;3.67;;
36131;SDS011;22185;48.738;9.324;2022-08-19T10:45:12;6.10;;;4.40;;
36131;SDS011;22185;48.738;9.324;2022-08-19T10:47:14;5.63;;;3.58;;
36131;SDS011;22185;48.738;9.324;2022-08-19T10:49:24;5.13;;;3.40;;
36131;SDS011;22185;48.738;9.324;2022-08-19T10:51:28;6.00;;;3.92;;
36131;SDS011;22185;48.738;9.324;2022-08-19T10:53:50;9.77;;;5.03;;
36131;SDS011;22185;48.738;9.324;2022-08-19T10:55:55;6.38;;;4.28;;
36131;SDS011;22185;48.738;9.324;2022-08-19T10:58:16;5.35;;;4.05;;
36131;SDS011;22185;48.738;9.324;2022-08-19T11:00:23;7.53;;;4.38;;
36131;SDS011;22185;48.738;9.324;2022-08-19T11:02:25;6.82;;;4.72;;
36131;SDS011;22185;48.738;9.324;2022-08-19T11:04:27;5.93;;;4.10;;
36131;SDS011;22185;48.738;9.324;2022-08-19T11:06:41;8.18;;;5.10;;
36131;SDS011;22185;48.738;9.324;2022-08-19T11:08:52;5.88;;;4.38;;
36131;SDS011;22185;48.738;9.324;2022-08-19T11:10:58;8.90;;;5.28;;
36131;SDS011;22185;48.738;9.324;2022-08-19T11:13:02;8.10;;;4.47;;
36131;SDS011;22185;48.738;9.324;2022-08-19T11:15:05;8.10;;;4.85;;
36131;SDS011;22185;48.738;9.324;2022-08-19T11:17:08;6.32;;;4.05;;
36131;SDS011;22185;48.738;9.324;2022-08-19T11:19:12;7.50;;;4.65;;
36131;SDS011;22185;48.738;9.324;2022-08-19T11:21:18;7.50;;;4.63;;
36131;SDS011;22185;48.738;9.324;2022-08-19T11:23:21;6.88;;;3.90;;
36131;SDS011;22185;48.738;9.324;2022-08-19T11:25:24;8.60;;;5.38;;
36131;SDS011;22185;48.738;9.324;2022-08-19T11:27:26;5.18;;;3.95;;
36131;SDS011;22185;48.738;9.324;2022-08-19T11:29:30;10.15;;;6.53;;
36131;SDS011;22185;48.738;9.324;2022-08-19T11:31:33;10.15;;;6.38;;
36131;SDS011;22185;48.738;9.324;2022-08-19T11:33:40;10.23;;;5.35;;
36131;SDS011;22185;48.738;9.324;2022-08-19T11:35:47;7.40;;;4.32;;
36131;SDS011;22185;48.738;9.324;2022-08-19T11:37:50;7.03;;;4.95;;
36131;SDS011;22185;48.738;9.324;2022-08-19T11:39:52;6.60;;;5.00;;
36131;SDS011;22185;48.738;9.324;2022-08-19T11:41:54;7.85;;;4.85;;
36131;SDS011;22185;48.738;9.324;2022-08-19T11:43:57;6.65;;;4.28;;
36131;SDS011;22185;48.738;9.324;2022-08-19T11:45:59;7.03;;;4.32;;
36131;SDS011;22185;48.738;9.324;2022-08-19T11:48:04;8.50;;;4.75;;
36131;SDS011;22185;48.738;9.324;2022-08-19T11:50:09;8.43;;;4.35;;
36131;SDS011;22185;48.738;9.324;2022-08-19T11:52:11;6.75;;;4.00;;
36131;SDS011;22185;48.738;9.324;2022-08-19T11:58:17;8.52;;;4.82;;
36131;SDS011;22185;48.738;9.324;2022-08-19T12:00:19;9.13;;;5.95;;
36131;SDS011;22185;48.738;9.324;2022-08-19T12:02:21;7.10;;;4.15;;
36131;SDS011;22185;48.738;9.324;2022-08-19T12:04:24;5.97;;;4.53;;
36131;SDS011;22185;48.738;9.324;2022-08-19T12:06:27;7.32;;;3.90;;
36131;SDS011;22185;48.738;9.324;2022-08-19T12:08:31;7.95;;;5.45;;
36131;SDS011;22185;48.738;9.324;2022-08-19T12:10:34;6.82;;;5.03;;
36131;SDS011;22185;48.738;9.324;2022-08-19T12:12:36;7.75;;;4.95;;
36131;SDS011;22185;48.738;9.324;2022-08-19T12:14:43;7.13;;;4.07;;
36131;SDS011;22185;48.738;9.324;2022-08-19T12:16:46;8.27;;;5.95;;
36131;SDS011;22185;48.738;9.324;2022-08-19T12:18:51;7.40;;;4.93;;
36131;SDS011;22185;48.738;9.324;2022-08-19T12:20:54;10.05;;;5.97;;
36131;SDS011;22185;48.738;9.324;2022-08-19T12:22:55;7.95;;;5.57;;
36131;SDS011;22185;48.738;9.324;2022-08-19T12:24:57;7.85;;;4.82;;
36131;SDS011;22185;48.738;9.324;2022-08-19T12:26:59;5.43;;;4.10;;
36131;SDS011;22185;48.738;9.324;2022-08-19T12:29:03;8.25;;;4.70;;
36131;SDS011;22185;48.738;9.324;2022-08-19T12:31:05;8.27;;;5.90;;
36131;SDS011;22185;48.738;9.324;2022-08-19T12:33:07;7.85;;;4.15;;
36131;SDS011;22185;48.738;9.324;2022-08-19T12:35:09;9.52;;;5.28;;
36131;SDS011;22185;48.738;9.324;2022-08-19T12:37:13;8.65;;;4.50;;
36131;SDS011;22185;48.738;9.324;2022-08-19T12:39:15;10.55;;;6.40;;
36131;SDS011;22185;48.738;9.324;2022-08-19T12:41:17;7.32;;;4.60;;
36131;SDS011;22185;48.738;9.324;2022-08-19T12:43:22;8.18;;;5.13;;
36131;SDS011;22185;48.738;9.324;2022-08-19T12:45:25;9.32;;;5.07;;
36131;SDS011;22185;48.738;9.324;2022-08-19T12:47:28;8.00;;;4.70;;
36131;SDS011;22185;48.738;9.324;2022-08-19T12:49:33;6.97;;;4.05;;
36131;SDS011;22185;48.738;9.324;2022-08-19T12:51:54;9.10;;;5.80;;
36131;SDS011;22185;48.738;9.324;2022-08-19T12:53:56;8.10;;;5.15;;
36131;SDS011;22185;48.738;9.324;2022-08-19T12:55:58;6.35;;;4.80;;
36131;SDS011;22185;48.738;9.324;2022-08-19T12:58:00;6.72;;;4.63;;
36131;SDS011;22185;48.738;9.324;2022-08-19T13:00:04;5.75;;;4.43;;
36131;SDS011;22185;48.738;9.324;2022-08-19T13:02:09;10.02;;;5.45;;
36131;SDS011;22185;48.738;9.324;2022-08-19T13:04:11;6.80;;;4.97;;
36131;SDS011;22185;48.738;9.324;2022-08-19T13:06:13;7.85;;;5.10;;
36131;SDS011;22185;48.738;9.324;2022-08-19T13:08:19;7.07;;;4.10;;
36131;SDS011;22185;48.738;9.324;2022-08-19T13:10:21;5.95;;;4.18;;
36131;SDS011;22185;48.738;9.324;2022-08-19T13:12:25;7.93;;;5.32;;
36131;SDS011;22185;48.738;9.324;2022-08-19T13:16:33;7.38;;;4.18;;
36131;SDS011;22185;48.738;9.324;2022-08-19T13:18:37;7.50;;;4.72;;
36131;SDS011;22185;48.738;9.324;2022-08-19T13:20:41;7.82;;;4.18;;
36131;SDS011;22185;48.738;9.324;2022-08-19T13:22:52;6.70;;;4.68;;
36131;SDS011;22185;48.738;9.324;2022-08-19T13:24:55;6.85;;;4.32;;
36131;SDS011;22185;48.738;9.324;2022-08-19T13:26:57;7.70;;;4.05;;
36131;SDS011;22185;48.738;9.324;2022-08-19T13:29:00;7.57;;;5.57;;
36131;SDS011;22185;48.738;9.324;2022-08-19T13:31:21;9.13;;;4.18;;
36131;SDS011;22185;48.738;9.324;2022-08-19T13:33:42;7.93;;;5.85;;
36131;SDS011;22185;48.738;9.324;2022-08-19T13:35:46;9.85;;;5.28;;
36131;SDS011;22185;48.738;9.324;2022-08-19T13:37:57;9.15;;;4.57;;
36131;SDS011;22185;48.738;9.324;2022-08-19T13:39:58;11.05;;;5.55;;
36131;SDS011;22185;48.738;9.324;2022-08-19T13:42:02;8.70;;;5.43;;
36131;SDS011;22185;48.738;9.324;2022-08-19T13:44:05;10.25;;;5.32;;
36131;SDS011;22185;48.738;9.324;2022-08-19T13:46:08;9.15;;;4.93;;
36131;SDS011;22185;48.738;9.324;2022-08-19T13:48:14;7.50;;;4.68;;